sensor_id;sensor_type;location;lat;lon;timestamp;P1;durP1;ratioP1;P2;durP2;ratioP2
11854;SDS011;5987;53.140;8.904;2023-12-07T00:01:38;26.20;;;13.80;;
11854;SDS011;5987;53.140;8.904;2023-12-07T00:04:42;24.87;;;15.17;;
11854;SDS011;5987;53.140;8.904;2023-12-07T00:07:46;23.80;;;13.73;;
11854;SDS011;5987;53.140;8.904;2023-12-07T00:10:49;21.50;;;13.73;;
11854;SDS011;5987;53.140;8.904;2023-12-07T00:13:53;22.50;;;13.67;;
11854;SDS011;5987;53.140;8.904;2023-12-07T00:16:58;22.97;;;13.70;;
11854;SDS011;5987;53.140;8.904;2023-12-07T00:20:02;27.43;;;15.67;;
11854;SDS011;5987;53.140;8.904;2023-12-07T00:23:07;25.67;;;14.37;;
11854;SDS011;5987;53.140;8.904;2023-12-07T00:26:11;23.37;;;13.87;;
11854;SDS011;5987;53.140;8.904;2023-12-07T00:29:15;21.47;;;12.70;;
11854;SDS011;5987;53.140;8.904;2023-12-07T00:32:20;25.13;;;13.07;;
11854;SDS011;5987;53.140;8.904;2023-12-07T00:35:24;27.40;;;15.90;;
11854;SDS011;5987;53.140;8.904;2023-12-07T00:38:30;25.47;;;15.60;;
11854;SDS011;5987;53.140;8.904;2023-12-07T00:41:35;23.70;;;12.80;;
11854;SDS011;5987;53.140;8.904;2023-12-07T00:44:40;27.00;;;14.63;;
11854;SDS011;5987;53.140;8.904;2023-12-07T00:47:46;24.17;;;13.80;;
11854;SDS011;5987;53.140;8.904;2023-12-07T00:50:49;22.90;;;14.73;;
11854;SDS011;5987;53.140;8.904;2023-12-07T00:53:53;22.83;;;14.17;;
11854;SDS011;5987;53.140;8.904;2023-12-07T00:56:57;25.50;;;14.97;;
11854;SDS011;5987;53.140;8.904;2023-12-07T01:00:01;25.23;;;14.83;;
11854;SDS011;5987;53.140;8.904;2023-12-07T01:03:07;26.33;;;14.87;;
11854;SDS011;5987;53.140;8.904;2023-12-07T01:06:11;27.47;;;14.40;;
11854;SDS011;5987;53.140;8.904;2023-12-07T01:09:15;26.00;;;15.23;;
11854;SDS011;5987;53.140;8.904;2023-12-07T01:12:19;24.83;;;14.60;;
11854;SDS011;5987;53.140;8.904;2023-12-07T01:15:23;24.83;;;15.10;;
11854;SDS011;5987;53.140;8.904;2023-12-07T01:18:28;24.17;;;14.27;;
11854;SDS011;5987;53.140;8.904;2023-12-07T01:21:32;24.87;;;14.07;;
11854;SDS011;5987;53.140;8.904;2023-12-07T01:24:36;21.33;;;14.80;;
11854;SDS011;5987;53.140;8.904;2023-12-07T01:27:40;22.97;;;13.93;;
11854;SDS011;5987;53.140;8.904;2023-12-07T01:30:44;27.10;;;15.43;;
11854;SDS011;5987;53.140;8.904;2023-12-07T01:33:49;24.67;;;14.40;;
11854;SDS011;5987;53.140;8.904;2023-12-07T01:36:53;24.30;;;14.30;;
11854;SDS011;5987;53.140;8.904;2023-12-07T01:39:57;26.90;;;14.57;;
11854;SDS011;5987;53.140;8.904;2023-12-07T01:43:01;23.10;;;13.73;;
11854;SDS011;5987;53.140;8.904;2023-12-07T01:46:05;26.00;;;15.00;;
11854;SDS011;5987;53.140;8.904;2023-12-07T01:49:10;26.03;;;14.33;;
11854;SDS011;5987;53.140;8.904;2023-12-07T01:52:14;23.83;;;13.83;;
11854;SDS011;5987;53.140;8.904;2023-12-07T01:55:20;24.90;;;15.33;;
11854;SDS011;5987;53.140;8.904;2023-12-07T01:58:26;24.50;;;14.27;;
11854;SDS011;5987;53.140;8.904;2023-12-07T02:01:30;31.23;;;14.93;;
11854;SDS011;5987;53.140;8.904;2023-12-07T02:04:35;24.60;;;14.37;;
11854;SDS011;5987;53.140;8.904;2023-12-07T02:07:40;23.90;;;13.73;;
11854;SDS011;5987;53.140;8.904;2023-12-07T02:10:44;24.07;;;14.83;;
11854;SDS011;5987;53.140;8.904;2023-12-07T02:13:48;24.27;;;13.20;;
11854;SDS011;5987;53.140;8.904;2023-12-07T02:16:57;25.87;;;13.33;;
11854;SDS011;5987;53.140;8.904;2023-12-07T02:20:17;21.43;;;14.37;;
11854;SDS011;5987;53.140;8.904;2023-12-07T02:23:31;26.53;;;14.57;;
11854;SDS011;5987;53.140;8.904;2023-12-07T02:26:51;29.70;;;15.10;;
11854;SDS011;5987;53.140;8.904;2023-12-07T02:29:55;23.23;;;13.97;;
11854;SDS011;5987;53.140;8.904;2023-12-07T02:32:59;24.33;;;13.73;;
11854;SDS011;5987;53.140;8.904;2023-12-07T02:36:03;21.70;;;13.07;;
11854;SDS011;5987;53.140;8.904;2023-12-07T02:39:08;23.20;;;14.03;;
11854;SDS011;5987;53.140;8.904;2023-12-07T02:42:15;24.10;;;14.33;;
11854;SDS011;5987;53.140;8.904;2023-12-07T02:45:20;28.13;;;14.77;;
11854;SDS011;5987;53.140;8.904;2023-12-07T02:48:24;23.30;;;14.10;;
11854;SDS011;5987;53.140;8.904;2023-12-07T02:51:29;22.13;;;13.40;;
11854;SDS011;5987;53.140;8.904;2023-12-07T02:54:33;24.20;;;14.53;;
11854;SDS011;5987;53.140;8.904;2023-12-07T02:57:38;24.67;;;14.40;;
11854;SDS011;5987;53.140;8.904;2023-12-07T03:00:42;22.63;;;13.07;;
11854;SDS011;5987;53.140;8.904;2023-12-07T03:03:46;22.33;;;14.13;;
11854;SDS011;5987;53.140;8.904;2023-12-07T03:06:49;28.33;;;14.53;;
11854;SDS011;5987;53.140;8.904;2023-12-07T03:09:53;27.30;;;15.20;;
11854;SDS011;5987;53.140;8.904;2023-12-07T03:12:59;25.03;;;13.33;;
11854;SDS011;5987;53.140;8.904;2023-12-07T03:16:06;26.17;;;15.07;;
11854;SDS011;5987;53.140;8.904;2023-12-07T03:19:12;28.00;;;16.13;;
11854;SDS011;5987;53.140;8.904;2023-12-07T03:22:16;24.63;;;13.93;;
11854;SDS011;5987;53.140;8.904;2023-12-07T03:25:20;25.23;;;14.93;;
11854;SDS011;5987;53.140;8.904;2023-12-07T03:28:25;24.60;;;14.63;;
11854;SDS011;5987;53.140;8.904;2023-12-07T03:31:29;24.33;;;14.37;;
11854;SDS011;5987;53.140;8.904;2023-12-07T03:34:34;26.60;;;14.23;;
11854;SDS011;5987;53.140;8.904;2023-12-07T03:37:38;22.70;;;13.70;;
11854;SDS011;5987;53.140;8.904;2023-12-07T03:40:42;29.90;;;13.80;;
11854;SDS011;5987;53.140;8.904;2023-12-07T03:43:51;27.67;;;12.87;;
11854;SDS011;5987;53.140;8.904;2023-12-07T03:46:55;21.50;;;13.80;;
11854;SDS011;5987;53.140;8.904;2023-12-07T03:49:59;19.43;;;12.30;;
11854;SDS011;5987;53.140;8.904;2023-12-07T03:53:03;23.40;;;12.50;;
11854;SDS011;5987;53.140;8.904;2023-12-07T03:56:07;24.93;;;12.20;;
11854;SDS011;5987;53.140;8.904;2023-12-07T03:59:13;20.90;;;13.03;;
11854;SDS011;5987;53.140;8.904;2023-12-07T04:02:17;20.90;;;11.80;;
11854;SDS011;5987;53.140;8.904;2023-12-07T04:05:20;20.17;;;11.93;;
11854;SDS011;5987;53.140;8.904;2023-12-07T04:08:24;23.50;;;11.57;;
11854;SDS011;5987;53.140;8.904;2023-12-07T04:11:28;25.90;;;13.43;;
11854;SDS011;5987;53.140;8.904;2023-12-07T04:14:33;21.60;;;13.17;;
11854;SDS011;5987;53.140;8.904;2023-12-07T04:17:37;19.97;;;11.43;;
11854;SDS011;5987;53.140;8.904;2023-12-07T04:20:41;19.57;;;12.57;;
11854;SDS011;5987;53.140;8.904;2023-12-07T04:23:44;18.57;;;11.77;;
11854;SDS011;5987;53.140;8.904;2023-12-07T04:26:48;23.43;;;12.57;;
11854;SDS011;5987;53.140;8.904;2023-12-07T04:29:53;19.37;;;12.03;;
11854;SDS011;5987;53.140;8.904;2023-12-07T04:32:58;25.07;;;13.47;;
11854;SDS011;5987;53.140;8.904;2023-12-07T04:36:03;20.97;;;13.07;;
11854;SDS011;5987;53.140;8.904;2023-12-07T04:39:09;20.53;;;12.33;;
11854;SDS011;5987;53.140;8.904;2023-12-07T04:42:13;22.17;;;12.20;;
11854;SDS011;5987;53.140;8.904;2023-12-07T04:45:18;20.57;;;12.13;;
11854;SDS011;5987;53.140;8.904;2023-12-07T04:48:22;21.07;;;12.70;;
11854;SDS011;5987;53.140;8.904;2023-12-07T04:51:27;19.83;;;12.00;;
11854;SDS011;5987;53.140;8.904;2023-12-07T04:54:31;19.10;;;10.87;;
11854;SDS011;5987;53.140;8.904;2023-12-07T04:57:35;17.63;;;11.20;;
11854;SDS011;5987;53.140;8.904;2023-12-07T05:00:41;19.43;;;11.60;;
11854;SDS011;5987;53.140;8.904;2023-12-07T05:03:45;22.27;;;11.80;;
11854;SDS011;5987;53.140;8.904;2023-12-07T05:06:49;20.90;;;12.40;;
11854;SDS011;5987;53.140;8.904;2023-12-07T05:09:53;21.47;;;12.10;;
11854;SDS011;5987;53.140;8.904;2023-12-07T05:12:57;19.77;;;11.67;;
11854;SDS011;5987;53.140;8.904;2023-12-07T05:16:02;21.60;;;12.23;;
11854;SDS011;5987;53.140;8.904;2023-12-07T05:19:07;17.93;;;11.50;;
11854;SDS011;5987;53.140;8.904;2023-12-07T05:22:11;19.53;;;12.17;;
11854;SDS011;5987;53.140;8.904;2023-12-07T05:25:17;18.07;;;11.37;;
11854;SDS011;5987;53.140;8.904;2023-12-07T05:28:21;20.13;;;12.00;;
11854;SDS011;5987;53.140;8.904;2023-12-07T05:31:26;18.03;;;11.57;;
11854;SDS011;5987;53.140;8.904;2023-12-07T05:34:30;20.33;;;11.47;;
11854;SDS011;5987;53.140;8.904;2023-12-07T05:37:35;15.80;;;10.80;;
11854;SDS011;5987;53.140;8.904;2023-12-07T05:40:39;19.10;;;10.97;;
11854;SDS011;5987;53.140;8.904;2023-12-07T05:43:43;21.87;;;11.53;;
11854;SDS011;5987;53.140;8.904;2023-12-07T05:46:48;20.40;;;11.60;;
11854;SDS011;5987;53.140;8.904;2023-12-07T05:49:52;18.20;;;11.10;;
11854;SDS011;5987;53.140;8.904;2023-12-07T05:52:59;17.90;;;11.40;;
11854;SDS011;5987;53.140;8.904;2023-12-07T05:56:02;19.20;;;11.37;;
11854;SDS011;5987;53.140;8.904;2023-12-07T05:59:07;18.87;;;11.87;;
11854;SDS011;5987;53.140;8.904;2023-12-07T06:02:12;18.90;;;10.90;;
11854;SDS011;5987;53.140;8.904;2023-12-07T06:05:16;16.73;;;10.83;;
11854;SDS011;5987;53.140;8.904;2023-12-07T06:08:20;16.47;;;10.33;;
11854;SDS011;5987;53.140;8.904;2023-12-07T06:11:24;18.47;;;10.40;;
11854;SDS011;5987;53.140;8.904;2023-12-07T06:14:28;15.50;;;10.03;;
11854;SDS011;5987;53.140;8.904;2023-12-07T06:17:35;20.97;;;12.43;;
11854;SDS011;5987;53.140;8.904;2023-12-07T06:20:39;17.20;;;10.43;;
11854;SDS011;5987;53.140;8.904;2023-12-07T06:23:43;18.87;;;11.37;;
11854;SDS011;5987;53.140;8.904;2023-12-07T06:26:48;21.27;;;11.07;;
11854;SDS011;5987;53.140;8.904;2023-12-07T06:29:51;17.10;;;10.67;;
11854;SDS011;5987;53.140;8.904;2023-12-07T06:32:57;21.57;;;12.97;;
11854;SDS011;5987;53.140;8.904;2023-12-07T06:36:00;20.00;;;11.60;;
11854;SDS011;5987;53.140;8.904;2023-12-07T06:39:06;20.43;;;12.53;;
11854;SDS011;5987;53.140;8.904;2023-12-07T06:42:10;22.17;;;11.27;;
11854;SDS011;5987;53.140;8.904;2023-12-07T06:45:27;16.97;;;11.30;;
11854;SDS011;5987;53.140;8.904;2023-12-07T06:48:32;19.40;;;11.57;;
11854;SDS011;5987;53.140;8.904;2023-12-07T06:51:36;17.73;;;10.30;;
11854;SDS011;5987;53.140;8.904;2023-12-07T06:54:40;18.33;;;11.10;;
11854;SDS011;5987;53.140;8.904;2023-12-07T06:57:44;18.17;;;11.03;;
11854;SDS011;5987;53.140;8.904;2023-12-07T07:00:48;16.27;;;10.13;;
11854;SDS011;5987;53.140;8.904;2023-12-07T07:03:53;18.23;;;10.97;;
11854;SDS011;5987;53.140;8.904;2023-12-07T07:06:58;16.43;;;9.37;;
11854;SDS011;5987;53.140;8.904;2023-12-07T07:10:02;17.60;;;9.93;;
11854;SDS011;5987;53.140;8.904;2023-12-07T07:13:07;16.77;;;9.40;;
11854;SDS011;5987;53.140;8.904;2023-12-07T07:16:11;17.83;;;11.07;;
11854;SDS011;5987;53.140;8.904;2023-12-07T07:19:16;16.17;;;10.10;;
11854;SDS011;5987;53.140;8.904;2023-12-07T07:22:20;15.63;;;11.00;;
11854;SDS011;5987;53.140;8.904;2023-12-07T07:25:24;17.67;;;11.17;;
11854;SDS011;5987;53.140;8.904;2023-12-07T07:28:28;15.20;;;9.50;;
11854;SDS011;5987;53.140;8.904;2023-12-07T07:31:32;18.17;;;11.47;;
11854;SDS011;5987;53.140;8.904;2023-12-07T07:34:38;16.93;;;10.70;;
11854;SDS011;5987;53.140;8.904;2023-12-07T07:37:42;16.87;;;9.57;;
11854;SDS011;5987;53.140;8.904;2023-12-07T07:40:46;19.63;;;11.27;;
11854;SDS011;5987;53.140;8.904;2023-12-07T07:43:50;17.10;;;10.63;;
11854;SDS011;5987;53.140;8.904;2023-12-07T07:46:54;19.17;;;10.30;;
11854;SDS011;5987;53.140;8.904;2023-12-07T07:50:00;15.20;;;9.80;;
11854;SDS011;5987;53.140;8.904;2023-12-07T07:53:07;15.27;;;10.00;;
11854;SDS011;5987;53.140;8.904;2023-12-07T07:56:11;17.30;;;10.60;;
11854;SDS011;5987;53.140;8.904;2023-12-07T07:59:15;15.67;;;10.40;;
11854;SDS011;5987;53.140;8.904;2023-12-07T08:02:19;18.67;;;11.33;;
11854;SDS011;5987;53.140;8.904;2023-12-07T08:05:25;17.63;;;10.10;;
11854;SDS011;5987;53.140;8.904;2023-12-07T08:08:29;15.87;;;10.37;;
11854;SDS011;5987;53.140;8.904;2023-12-07T08:11:34;15.23;;;9.93;;
11854;SDS011;5987;53.140;8.904;2023-12-07T08:14:37;18.57;;;10.93;;
11854;SDS011;5987;53.140;8.904;2023-12-07T08:17:45;16.97;;;11.73;;
11854;SDS011;5987;53.140;8.904;2023-12-07T08:20:50;16.50;;;10.53;;
11854;SDS011;5987;53.140;8.904;2023-12-07T08:23:54;16.57;;;11.07;;
11854;SDS011;5987;53.140;8.904;2023-12-07T08:26:58;18.73;;;11.17;;
11854;SDS011;5987;53.140;8.904;2023-12-07T08:30:02;17.60;;;11.77;;
11854;SDS011;5987;53.140;8.904;2023-12-07T08:33:07;19.60;;;12.00;;
11854;SDS011;5987;53.140;8.904;2023-12-07T08:36:12;21.17;;;12.77;;
11854;SDS011;5987;53.140;8.904;2023-12-07T08:39:17;20.87;;;11.40;;
11854;SDS011;5987;53.140;8.904;2023-12-07T08:42:21;19.80;;;10.53;;
11854;SDS011;5987;53.140;8.904;2023-12-07T08:45:25;18.70;;;11.57;;
11854;SDS011;5987;53.140;8.904;2023-12-07T08:48:29;20.20;;;12.20;;
11854;SDS011;5987;53.140;8.904;2023-12-07T08:51:35;21.93;;;11.63;;
11854;SDS011;5987;53.140;8.904;2023-12-07T08:54:39;19.00;;;11.60;;
11854;SDS011;5987;53.140;8.904;2023-12-07T08:57:43;17.40;;;11.53;;
11854;SDS011;5987;53.140;8.904;2023-12-07T09:00:47;17.00;;;10.80;;
11854;SDS011;5987;53.140;8.904;2023-12-07T09:03:52;20.60;;;11.53;;
11854;SDS011;5987;53.140;8.904;2023-12-07T09:06:57;22.13;;;11.73;;
11854;SDS011;5987;53.140;8.904;2023-12-07T09:10:01;17.43;;;10.97;;
11854;SDS011;5987;53.140;8.904;2023-12-07T09:13:05;17.00;;;10.07;;
11854;SDS011;5987;53.140;8.904;2023-12-07T09:16:09;20.60;;;12.47;;
11854;SDS011;5987;53.140;8.904;2023-12-07T09:19:13;15.63;;;10.40;;
11854;SDS011;5987;53.140;8.904;2023-12-07T09:22:18;20.73;;;11.73;;
11854;SDS011;5987;53.140;8.904;2023-12-07T09:25:32;19.97;;;10.97;;
11854;SDS011;5987;53.140;8.904;2023-12-07T09:28:37;20.77;;;11.70;;
11854;SDS011;5987;53.140;8.904;2023-12-07T09:31:44;19.00;;;11.73;;
11854;SDS011;5987;53.140;8.904;2023-12-07T09:34:51;17.57;;;11.10;;
11854;SDS011;5987;53.140;8.904;2023-12-07T09:37:56;15.13;;;10.37;;
11854;SDS011;5987;53.140;8.904;2023-12-07T09:41:00;17.87;;;11.07;;
11854;SDS011;5987;53.140;8.904;2023-12-07T09:44:05;17.23;;;9.97;;
11854;SDS011;5987;53.140;8.904;2023-12-07T09:47:08;19.30;;;10.93;;
11854;SDS011;5987;53.140;8.904;2023-12-07T09:50:16;17.03;;;11.27;;
11854;SDS011;5987;53.140;8.904;2023-12-07T09:53:24;15.93;;;10.83;;
11854;SDS011;5987;53.140;8.904;2023-12-07T09:56:30;16.27;;;10.27;;
11854;SDS011;5987;53.140;8.904;2023-12-07T09:59:34;20.20;;;10.23;;
11854;SDS011;5987;53.140;8.904;2023-12-07T10:02:38;15.60;;;9.87;;
11854;SDS011;5987;53.140;8.904;2023-12-07T10:05:52;17.97;;;9.57;;
11854;SDS011;5987;53.140;8.904;2023-12-07T10:09:04;17.07;;;11.30;;
11854;SDS011;5987;53.140;8.904;2023-12-07T10:12:17;19.70;;;10.90;;
11854;SDS011;5987;53.140;8.904;2023-12-07T10:15:22;17.47;;;11.43;;
11854;SDS011;5987;53.140;8.904;2023-12-07T10:18:27;17.83;;;10.67;;
11854;SDS011;5987;53.140;8.904;2023-12-07T10:21:31;17.67;;;10.93;;
11854;SDS011;5987;53.140;8.904;2023-12-07T10:24:37;18.67;;;11.43;;
11854;SDS011;5987;53.140;8.904;2023-12-07T10:27:41;18.27;;;11.33;;
11854;SDS011;5987;53.140;8.904;2023-12-07T10:30:45;23.37;;;11.97;;
11854;SDS011;5987;53.140;8.904;2023-12-07T10:33:49;15.27;;;10.63;;
11854;SDS011;5987;53.140;8.904;2023-12-07T10:36:53;19.43;;;12.13;;
11854;SDS011;5987;53.140;8.904;2023-12-07T10:40:01;21.47;;;11.70;;
11854;SDS011;5987;53.140;8.904;2023-12-07T10:43:07;18.37;;;11.40;;
11854;SDS011;5987;53.140;8.904;2023-12-07T10:46:13;18.90;;;11.77;;
11854;SDS011;5987;53.140;8.904;2023-12-07T10:49:19;17.00;;;10.23;;
11854;SDS011;5987;53.140;8.904;2023-12-07T10:52:35;17.20;;;10.27;;
11854;SDS011;5987;53.140;8.904;2023-12-07T10:55:45;16.57;;;10.83;;
11854;SDS011;5987;53.140;8.904;2023-12-07T10:58:56;15.07;;;9.90;;
11854;SDS011;5987;53.140;8.904;2023-12-07T11:02:01;17.17;;;10.90;;
11854;SDS011;5987;53.140;8.904;2023-12-07T11:05:08;17.00;;;10.57;;
11854;SDS011;5987;53.140;8.904;2023-12-07T11:08:14;17.40;;;10.70;;
11854;SDS011;5987;53.140;8.904;2023-12-07T11:11:31;15.03;;;10.77;;
11854;SDS011;5987;53.140;8.904;2023-12-07T11:14:41;14.97;;;10.00;;
11854;SDS011;5987;53.140;8.904;2023-12-07T11:17:50;15.40;;;10.03;;
11854;SDS011;5987;53.140;8.904;2023-12-07T11:20:56;13.63;;;9.43;;
11854;SDS011;5987;53.140;8.904;2023-12-07T11:24:01;16.43;;;10.00;;
11854;SDS011;5987;53.140;8.904;2023-12-07T11:27:07;15.57;;;10.33;;
11854;SDS011;5987;53.140;8.904;2023-12-07T11:30:11;14.80;;;9.87;;
11854;SDS011;5987;53.140;8.904;2023-12-07T11:33:17;15.10;;;9.83;;
11854;SDS011;5987;53.140;8.904;2023-12-07T11:36:23;17.37;;;9.80;;
11854;SDS011;5987;53.140;8.904;2023-12-07T11:39:28;15.50;;;10.13;;
11854;SDS011;5987;53.140;8.904;2023-12-07T11:42:38;16.20;;;9.07;;
11854;SDS011;5987;53.140;8.904;2023-12-07T11:45:46;14.97;;;9.20;;
11854;SDS011;5987;53.140;8.904;2023-12-07T11:48:53;16.17;;;10.27;;
11854;SDS011;5987;53.140;8.904;2023-12-07T11:51:58;16.73;;;10.87;;
11854;SDS011;5987;53.140;8.904;2023-12-07T11:55:03;22.90;;;12.20;;
11854;SDS011;5987;53.140;8.904;2023-12-07T11:58:12;17.73;;;11.83;;
11854;SDS011;5987;53.140;8.904;2023-12-07T12:01:16;17.40;;;9.83;;
11854;SDS011;5987;53.140;8.904;2023-12-07T12:04:21;17.00;;;10.60;;
11854;SDS011;5987;53.140;8.904;2023-12-07T12:07:25;17.93;;;10.33;;
11854;SDS011;5987;53.140;8.904;2023-12-07T12:10:29;16.53;;;11.43;;
11854;SDS011;5987;53.140;8.904;2023-12-07T12:13:34;15.93;;;10.33;;
11854;SDS011;5987;53.140;8.904;2023-12-07T12:16:39;16.17;;;11.03;;
11854;SDS011;5987;53.140;8.904;2023-12-07T12:19:43;15.87;;;10.87;;
11854;SDS011;5987;53.140;8.904;2023-12-07T12:22:47;23.73;;;11.23;;
11854;SDS011;5987;53.140;8.904;2023-12-07T12:25:55;17.40;;;10.17;;
11854;SDS011;5987;53.140;8.904;2023-12-07T12:29:01;14.17;;;10.20;;
11854;SDS011;5987;53.140;8.904;2023-12-07T12:32:05;17.07;;;10.70;;
11854;SDS011;5987;53.140;8.904;2023-12-07T12:35:12;18.27;;;10.50;;
11854;SDS011;5987;53.140;8.904;2023-12-07T12:38:17;19.70;;;10.80;;
11854;SDS011;5987;53.140;8.904;2023-12-07T12:41:35;19.53;;;11.13;;
11854;SDS011;5987;53.140;8.904;2023-12-07T12:44:43;18.83;;;11.47;;
11854;SDS011;5987;53.140;8.904;2023-12-07T12:47:47;19.07;;;11.53;;
11854;SDS011;5987;53.140;8.904;2023-12-07T12:50:51;16.90;;;9.30;;
11854;SDS011;5987;53.140;8.904;2023-12-07T12:53:56;19.93;;;10.10;;
11854;SDS011;5987;53.140;8.904;2023-12-07T12:57:02;18.27;;;10.73;;
11854;SDS011;5987;53.140;8.904;2023-12-07T13:00:12;18.27;;;11.37;;
11854;SDS011;5987;53.140;8.904;2023-12-07T13:03:16;16.90;;;10.23;;
11854;SDS011;5987;53.140;8.904;2023-12-07T13:06:20;17.57;;;10.70;;
11854;SDS011;5987;53.140;8.904;2023-12-07T13:09:24;17.27;;;10.03;;
11854;SDS011;5987;53.140;8.904;2023-12-07T13:12:28;17.87;;;10.80;;
11854;SDS011;5987;53.140;8.904;2023-12-07T13:15:37;14.80;;;10.20;;
11854;SDS011;5987;53.140;8.904;2023-12-07T13:18:41;16.37;;;9.93;;
11854;SDS011;5987;53.140;8.904;2023-12-07T13:21:45;19.27;;;10.37;;
11854;SDS011;5987;53.140;8.904;2023-12-07T13:24:49;17.13;;;11.53;;
11854;SDS011;5987;53.140;8.904;2023-12-07T13:27:53;20.10;;;11.67;;
11854;SDS011;5987;53.140;8.904;2023-12-07T13:30:58;19.13;;;11.50;;
11854;SDS011;5987;53.140;8.904;2023-12-07T13:34:02;16.77;;;11.57;;
11854;SDS011;5987;53.140;8.904;2023-12-07T13:37:12;21.93;;;11.97;;
11854;SDS011;5987;53.140;8.904;2023-12-07T13:40:16;22.10;;;12.73;;
11854;SDS011;5987;53.140;8.904;2023-12-07T13:43:20;20.50;;;12.50;;
11854;SDS011;5987;53.140;8.904;2023-12-07T13:46:27;20.17;;;12.03;;
11854;SDS011;5987;53.140;8.904;2023-12-07T13:49:31;20.77;;;10.33;;
11854;SDS011;5987;53.140;8.904;2023-12-07T13:52:36;18.33;;;10.67;;
11854;SDS011;5987;53.140;8.904;2023-12-07T13:55:39;19.77;;;11.83;;
11854;SDS011;5987;53.140;8.904;2023-12-07T13:58:44;16.70;;;10.73;;
11854;SDS011;5987;53.140;8.904;2023-12-07T14:01:49;17.57;;;11.37;;
11854;SDS011;5987;53.140;8.904;2023-12-07T14:04:53;19.90;;;10.77;;
11854;SDS011;5987;53.140;8.904;2023-12-07T14:07:57;18.80;;;11.63;;
11854;SDS011;5987;53.140;8.904;2023-12-07T14:11:01;17.47;;;10.37;;
11854;SDS011;5987;53.140;8.904;2023-12-07T14:14:05;16.63;;;10.80;;
11854;SDS011;5987;53.140;8.904;2023-12-07T14:17:10;19.93;;;12.07;;
11854;SDS011;5987;53.140;8.904;2023-12-07T14:20:15;18.87;;;12.13;;
11854;SDS011;5987;53.140;8.904;2023-12-07T14:23:39;20.97;;;12.43;;
11854;SDS011;5987;53.140;8.904;2023-12-07T14:26:51;22.10;;;12.50;;
11854;SDS011;5987;53.140;8.904;2023-12-07T14:29:56;18.83;;;12.23;;
11854;SDS011;5987;53.140;8.904;2023-12-07T14:33:02;21.03;;;11.90;;
11854;SDS011;5987;53.140;8.904;2023-12-07T14:36:06;16.97;;;11.47;;
11854;SDS011;5987;53.140;8.904;2023-12-07T14:39:14;22.40;;;13.40;;
11854;SDS011;5987;53.140;8.904;2023-12-07T14:42:19;20.33;;;11.40;;
11854;SDS011;5987;53.140;8.904;2023-12-07T14:45:26;19.80;;;12.03;;
11854;SDS011;5987;53.140;8.904;2023-12-07T14:48:31;17.97;;;11.57;;
11854;SDS011;5987;53.140;8.904;2023-12-07T14:51:35;58.57;;;33.93;;
11854;SDS011;5987;53.140;8.904;2023-12-07T14:54:39;43.17;;;21.90;;
11854;SDS011;5987;53.140;8.904;2023-12-07T14:57:43;22.43;;;13.97;;
11854;SDS011;5987;53.140;8.904;2023-12-07T15:00:50;22.87;;;13.43;;
11854;SDS011;5987;53.140;8.904;2023-12-07T15:03:57;24.37;;;13.50;;
11854;SDS011;5987;53.140;8.904;2023-12-07T15:07:01;25.90;;;15.73;;
11854;SDS011;5987;53.140;8.904;2023-12-07T15:10:07;24.30;;;14.53;;
11854;SDS011;5987;53.140;8.904;2023-12-07T15:13:11;23.40;;;12.00;;
11854;SDS011;5987;53.140;8.904;2023-12-07T15:16:15;20.77;;;13.23;;
11854;SDS011;5987;53.140;8.904;2023-12-07T15:19:21;18.10;;;11.40;;
11854;SDS011;5987;53.140;8.904;2023-12-07T15:22:25;18.47;;;11.50;;
11854;SDS011;5987;53.140;8.904;2023-12-07T15:25:29;21.60;;;11.90;;
11854;SDS011;5987;53.140;8.904;2023-12-07T15:28:34;22.10;;;12.13;;
11854;SDS011;5987;53.140;8.904;2023-12-07T15:31:37;19.47;;;11.80;;
11854;SDS011;5987;53.140;8.904;2023-12-07T15:34:43;23.67;;;12.93;;
11854;SDS011;5987;53.140;8.904;2023-12-07T15:37:46;21.30;;;12.23;;
11854;SDS011;5987;53.140;8.904;2023-12-07T15:40:50;19.90;;;11.20;;
11854;SDS011;5987;53.140;8.904;2023-12-07T15:43:57;20.43;;;12.53;;
11854;SDS011;5987;53.140;8.904;2023-12-07T15:47:01;20.93;;;11.60;;
11854;SDS011;5987;53.140;8.904;2023-12-07T15:50:07;20.70;;;11.73;;
11854;SDS011;5987;53.140;8.904;2023-12-07T15:53:13;23.93;;;13.07;;
11854;SDS011;5987;53.140;8.904;2023-12-07T15:56:16;22.53;;;15.40;;
11854;SDS011;5987;53.140;8.904;2023-12-07T15:59:27;22.63;;;14.73;;
11854;SDS011;5987;53.140;8.904;2023-12-07T16:02:31;27.23;;;16.57;;
11854;SDS011;5987;53.140;8.904;2023-12-07T16:05:37;21.57;;;14.20;;
11854;SDS011;5987;53.140;8.904;2023-12-07T16:08:42;23.13;;;13.53;;
11854;SDS011;5987;53.140;8.904;2023-12-07T16:11:46;24.60;;;13.27;;
11854;SDS011;5987;53.140;8.904;2023-12-07T16:14:50;26.03;;;13.70;;
11854;SDS011;5987;53.140;8.904;2023-12-07T16:17:57;23.07;;;13.00;;
11854;SDS011;5987;53.140;8.904;2023-12-07T16:21:03;21.73;;;12.90;;
11854;SDS011;5987;53.140;8.904;2023-12-07T16:24:10;20.20;;;12.93;;
11854;SDS011;5987;53.140;8.904;2023-12-07T16:27:14;24.10;;;13.07;;
11854;SDS011;5987;53.140;8.904;2023-12-07T16:30:18;22.20;;;13.03;;
11854;SDS011;5987;53.140;8.904;2023-12-07T16:33:21;21.10;;;13.70;;
11854;SDS011;5987;53.140;8.904;2023-12-07T16:36:27;28.90;;;16.87;;
11854;SDS011;5987;53.140;8.904;2023-12-07T16:39:30;25.57;;;14.80;;
11854;SDS011;5987;53.140;8.904;2023-12-07T16:42:35;23.67;;;14.47;;
11854;SDS011;5987;53.140;8.904;2023-12-07T16:45:40;24.13;;;15.23;;
11854;SDS011;5987;53.140;8.904;2023-12-07T16:48:44;21.30;;;13.30;;
11854;SDS011;5987;53.140;8.904;2023-12-07T16:51:49;24.10;;;14.77;;
11854;SDS011;5987;53.140;8.904;2023-12-07T16:54:53;24.73;;;13.90;;
11854;SDS011;5987;53.140;8.904;2023-12-07T16:57:57;25.23;;;14.90;;
11854;SDS011;5987;53.140;8.904;2023-12-07T17:01:01;26.67;;;15.50;;
11854;SDS011;5987;53.140;8.904;2023-12-07T17:04:05;24.80;;;12.10;;
11854;SDS011;5987;53.140;8.904;2023-12-07T17:07:11;22.87;;;13.70;;
11854;SDS011;5987;53.140;8.904;2023-12-07T17:10:15;29.53;;;16.00;;
11854;SDS011;5987;53.140;8.904;2023-12-07T17:13:19;22.97;;;14.93;;
11854;SDS011;5987;53.140;8.904;2023-12-07T17:16:22;29.07;;;15.30;;
11854;SDS011;5987;53.140;8.904;2023-12-07T17:19:26;31.27;;;19.33;;
11854;SDS011;5987;53.140;8.904;2023-12-07T17:22:40;30.27;;;17.63;;
11854;SDS011;5987;53.140;8.904;2023-12-07T17:25:44;28.17;;;16.33;;
11854;SDS011;5987;53.140;8.904;2023-12-07T17:28:47;47.70;;;28.10;;
11854;SDS011;5987;53.140;8.904;2023-12-07T17:31:51;38.10;;;22.47;;
11854;SDS011;5987;53.140;8.904;2023-12-07T17:34:56;45.90;;;29.00;;
11854;SDS011;5987;53.140;8.904;2023-12-07T17:38:02;39.00;;;23.20;;
11854;SDS011;5987;53.140;8.904;2023-12-07T17:41:05;26.90;;;15.23;;
11854;SDS011;5987;53.140;8.904;2023-12-07T17:44:11;34.97;;;18.47;;
11854;SDS011;5987;53.140;8.904;2023-12-07T17:47:15;29.33;;;17.20;;
11854;SDS011;5987;53.140;8.904;2023-12-07T17:50:19;30.90;;;16.03;;
11854;SDS011;5987;53.140;8.904;2023-12-07T17:53:24;28.20;;;16.37;;
11854;SDS011;5987;53.140;8.904;2023-12-07T17:56:28;29.53;;;16.93;;
11854;SDS011;5987;53.140;8.904;2023-12-07T17:59:32;37.63;;;17.60;;
11854;SDS011;5987;53.140;8.904;2023-12-07T18:02:36;50.30;;;28.50;;
11854;SDS011;5987;53.140;8.904;2023-12-07T18:05:40;34.57;;;20.33;;
11854;SDS011;5987;53.140;8.904;2023-12-07T18:08:45;35.30;;;18.63;;
11854;SDS011;5987;53.140;8.904;2023-12-07T18:11:49;38.33;;;19.17;;
11854;SDS011;5987;53.140;8.904;2023-12-07T18:14:54;33.50;;;18.73;;
11854;SDS011;5987;53.140;8.904;2023-12-07T18:17:58;32.77;;;18.40;;
11854;SDS011;5987;53.140;8.904;2023-12-07T18:21:02;32.03;;;17.37;;